Time;durP1;ratioP1;P1;durP2;ratioP2;P2;SDS_P1;SDS_P2;PMS_P1;PMS_P2;Temp;Humidity;BMP_temperature;BMP_pressure;BME280_temperature;BME280_humidity;BME280_pressure;Samples;Min_cycle;Max_cycle;Signal;HPM_P1;HPM_P2
2022/06/09 00:00:38;;;;;;;1.57;1.43;;;14.10;99.90;;;;;;5052729;28;20468;-72
2022/06/09 00:03:08;;;;;;;1.93;1.53;;;14.10;99.90;;;;;;5051787;28;20899;-72
2022/06/09 00:05:35;;;;;;;1.37;1.23;;;14.10;99.90;;;;;;5052561;28;20495;-71
2022/06/09 00:08:05;;;;;;;2.50;1.40;;;14.10;99.90;;;;;;5051489;28;20478;-71
2022/06/09 00:10:38;;;;;;;1.67;1.43;;;14.10;99.90;;;;;;5050990;28;20463;-71
2022/06/09 00:13:05;;;;;;;1.43;1.33;;;14.10;99.90;;;;;;5051969;28;20483;-71
2022/06/09 00:15:32;;;;;;;1.00;0.90;;;14.10;99.90;;;;;;5052105;28;20483;-72
2022/06/09 00:17:59;;;;;;;1.20;1.10;;;14.10;99.90;;;;;;5051355;28;20465;-70
2022/06/09 00:20:26;;;;;;;1.40;1.00;;;14.10;99.90;;;;;;5052332;28;20893;-70
2022/06/09 00:22:52;;;;;;;1.20;1.00;;;14.10;99.90;;;;;;5051333;28;20486;-71
2022/06/09 00:25:19;;;;;;;1.30;1.13;;;14.10;99.90;;;;;;5051946;28;21236;-70
2022/06/09 00:27:47;;;;;;;3.23;1.10;;;14.10;99.90;;;;;;5051884;28;20466;-71
2022/06/09 00:30:17;;;;;;;1.23;1.10;;;14.10;99.90;;;;;;5051556;28;20468;-70
2022/06/09 00:32:44;;;;;;;1.77;1.00;;;14.10;99.90;;;;;;5052662;28;20491;-71
2022/06/09 00:35:12;;;;;;;1.40;1.20;;;14.10;99.90;;;;;;5052896;28;20491;-70
2022/06/09 00:37:38;;;;;;;1.20;1.00;;;14.10;99.90;;;;;;5052560;28;20985;-71
2022/06/09 00:40:08;;;;;;;1.00;0.80;;;14.10;99.90;;;;;;5051893;28;20498;-70
2022/06/09 00:42:35;;;;;;;3.30;1.00;;;14.00;99.90;;;;;;5052465;28;20986;-70
2022/06/09 00:45:26;;;;;;;1.53;1.13;;;14.00;99.90;;;;;;5052402;28;20455;-71
2022/06/09 00:47:58;;;;;;;1.30;1.07;;;14.00;99.90;;;;;;5052303;28;20460;-69
2022/06/09 00:50:27;;;;;;;1.33;1.00;;;14.00;99.90;;;;;;5052410;28;20939;-71
2022/06/09 00:52:57;;;;;;;1.67;1.13;;;13.90;99.90;;;;;;5052349;28;20502;-71
2022/06/09 00:55:28;;;;;;;2.50;1.40;;;13.90;99.90;;;;;;5052365;28;20496;-71
2022/06/09 00:57:58;;;;;;;1.40;1.07;;;13.90;99.90;;;;;;5052144;28;20463;-71
2022/06/09 01:00:32;;;;;;;1.60;1.13;;;13.90;99.90;;;;;;5052249;28;20463;-72
2022/06/09 01:03:01;;;;;;;1.10;1.00;;;13.90;99.90;;;;;;5052064;28;20491;-71
2022/06/09 01:05:31;;;;;;;1.20;1.10;;;13.90;99.90;;;;;;5052209;28;20478;-70
2022/06/09 01:08:02;;;;;;;1.50;1.20;;;13.80;99.90;;;;;;5051721;28;20843;-72
2022/06/09 01:10:30;;;;;;;2.00;1.20;;;13.80;99.90;;;;;;5052236;28;20463;-70
2022/06/09 01:12:58;;;;;;;1.30;1.00;;;13.80;99.90;;;;;;5051803;28;20856;-69
2022/06/09 01:15:33;;;;;;;1.40;1.20;;;13.80;99.90;;;;;;5052087;28;20496;-70
2022/06/09 01:18:09;;;;;;;0.97;0.87;;;13.80;99.90;;;;;;5051226;28;20842;-70
2022/06/09 01:20:41;;;;;;;1.60;0.97;;;13.80;99.90;;;;;;5052043;28;20470;-70
2022/06/09 01:23:42;;;;;;;2.60;1.03;;;13.80;99.90;;;;;;5051209;28;20489;-71
2022/06/09 01:26:24;;;;;;;1.33;0.90;;;13.90;99.90;;;;;;5010515;28;20459;-71
2022/06/09 01:29:26;;;;;;;1.20;1.03;;;13.80;99.90;;;;;;5051090;28;20451;-71
2022/06/09 01:32:01;;;;;;;1.10;1.00;;;13.80;99.90;;;;;;5030904;28;20463;-71
2022/06/09 01:34:36;;;;;;;1.10;1.00;;;13.90;99.90;;;;;;5051557;28;20835;-71
2022/06/09 01:37:08;;;;;;;1.60;0.90;;;13.90;99.90;;;;;;5051503;28;20504;-68
2022/06/09 01:39:49;;;;;;;1.80;1.10;;;13.90;99.90;;;;;;5051065;28;20464;-71
2022/06/09 01:42:25;;;;;;;3.70;0.90;;;13.80;99.90;;;;;;5051289;28;20513;-72
2022/06/09 01:44:55;;;;;;;1.83;0.90;;;13.80;99.90;;;;;;5051363;28;20882;-70
2022/06/09 01:47:30;;;;;;;1.73;1.00;;;13.80;99.90;;;;;;5051337;28;20467;-71
2022/06/09 01:50:00;;;;;;;1.23;1.10;;;13.70;99.90;;;;;;5050730;28;20454;-70
2022/06/09 01:52:27;;;;;;;1.30;1.13;;;13.70;99.90;;;;;;5051199;28;20459;-71
2022/06/09 01:54:56;;;;;;;1.83;1.20;;;13.60;99.90;;;;;;5051149;28;20835;-71
2022/06/09 01:57:27;;;;;;;3.10;1.20;;;13.60;99.90;;;;;;5051298;28;20539;-71
2022/06/09 01:59:58;;;;;;;2.10;1.30;;;13.60;99.90;;;;;;5050734;28;20480;-70
2022/06/09 02:02:31;;;;;;;2.40;1.10;;;13.60;99.90;;;;;;5051258;28;20946;-71
2022/06/09 02:05:01;;;;;;;1.63;1.17;;;13.60;99.90;;;;;;5051125;28;20463;-71
2022/06/09 02:07:32;;;;;;;1.90;1.20;;;13.60;99.90;;;;;;5051501;28;20455;-71
2022/06/09 02:10:11;;;;;;;2.10;1.27;;;13.60;99.90;;;;;;5050701;28;20475;-71
2022/06/09 02:12:37;;;;;;;4.43;1.47;;;13.60;99.90;;;;;;5051256;28;20463;-70
2022/06/09 02:15:09;;;;;;;1.40;1.10;;;13.60;99.90;;;;;;5050897;28;20464;-71
2022/06/09 02:17:44;;;;;;;1.50;1.17;;;13.60;99.90;;;;;;5051279;28;20459;-70
2022/06/09 02:20:11;;;;;;;2.07;1.43;;;13.50;99.90;;;;;;5050347;28;20466;-70
2022/06/09 02:22:38;;;;;;;1.93;1.20;;;13.50;99.90;;;;;;5050526;28;20490;-70
2022/06/09 02:25:06;;;;;;;1.50;1.20;;;13.50;99.90;;;;;;5050726;28;20472;-71
2022/06/09 02:27:33;;;;;;;1.30;1.20;;;13.50;99.90;;;;;;5050787;28;20467;-70
2022/06/09 02:29:59;;;;;;;2.37;1.40;;;13.50;99.90;;;;;;5049962;28;20455;-72
2022/06/09 02:32:26;;;;;;;1.33;1.17;;;13.50;99.90;;;;;;5050490;28;20478;-70
2022/06/09 02:34:54;;;;;;;1.97;1.23;;;13.50;99.90;;;;;;5049906;28;20474;-70
2022/06/09 02:37:21;;;;;;;1.50;1.40;;;13.40;99.90;;;;;;5050798;28;20498;-70
2022/06/09 02:39:48;;;;;;;2.47;1.67;;;13.40;99.90;;;;;;5049861;28;20455;-70
2022/06/09 02:42:14;;;;;;;2.40;1.77;;;13.40;99.90;;;;;;5050525;28;20827;-71
2022/06/09 02:44:41;;;;;;;1.53;1.37;;;13.40;99.90;;;;;;5050402;28;20479;-70
2022/06/09 02:47:08;;;;;;;3.57;1.10;;;13.40;99.90;;;;;;5050589;28;20531;-71
2022/06/09 02:49:35;;;;;;;1.30;1.20;;;13.40;99.90;;;;;;5051280;28;20570;-72
2022/06/09 02:52:03;;;;;;;1.40;1.30;;;13.40;99.90;;;;;;5050988;28;20460;-70
2022/06/09 02:54:30;;;;;;;1.50;1.37;;;13.40;99.90;;;;;;5051134;28;20895;-70
2022/06/09 02:56:57;;;;;;;2.20;1.30;;;13.40;99.90;;;;;;5050288;28;20490;-71
2022/06/09 02:59:23;;;;;;;1.80;1.43;;;13.40;99.90;;;;;;5050133;28;20474;-71
2022/06/09 03:01:50;;;;;;;1.33;1.23;;;13.40;99.90;;;;;;5050405;28;20467;-72
2022/06/09 03:04:17;;;;;;;1.90;1.30;;;13.40;99.90;;;;;;5050641;28;20573;-71
2022/06/09 03:06:44;;;;;;;4.43;1.40;;;13.40;99.90;;;;;;5050570;28;20799;-71
2022/06/09 03:09:12;;;;;;;2.00;1.27;;;13.40;99.90;;;;;;5049789;28;20459;-72
2022/06/09 03:11:38;;;;;;;1.60;1.50;;;13.40;99.90;;;;;;5050613;28;20464;-71
2022/06/09 03:14:05;;;;;;;3.60;1.40;;;13.40;99.90;;;;;;5050033;28;21026;-71
2022/06/09 03:16:32;;;;;;;1.73;1.20;;;13.40;99.90;;;;;;5050672;28;20491;-72
2022/06/09 03:18:59;;;;;;;1.30;1.20;;;13.40;99.90;;;;;;5049756;28;20463;-71
2022/06/09 03:21:26;;;;;;;3.33;1.20;;;13.40;99.90;;;;;;5050623;28;20470;-70
2022/06/09 03:23:52;;;;;;;2.27;1.20;;;13.40;99.90;;;;;;5050087;28;20858;-70
2022/06/09 03:26:22;;;;;;;2.43;1.30;;;13.40;99.90;;;;;;5050185;28;20460;-71
2022/06/09 03:28:49;;;;;;;6.07;1.90;;;13.40;99.90;;;;;;5049623;28;20555;-71
2022/06/09 03:31:17;;;;;;;1.40;1.30;;;13.40;99.90;;;;;;5045857;28;20468;-71
2022/06/09 03:33:44;;;;;;;1.57;1.47;;;13.40;99.90;;;;;;5031149;28;20987;-71
2022/06/09 03:36:11;;;;;;;1.80;1.40;;;13.30;99.90;;;;;;5043039;28;20477;-71
2022/06/09 03:38:40;;;;;;;2.07;1.60;;;13.30;99.90;;;;;;5037257;28;20960;-71
2022/06/09 03:41:07;;;;;;;2.33;2.13;;;13.40;99.90;;;;;;5038271;28;20473;-70
2022/06/09 03:43:36;;;;;;;4.00;2.17;;;13.40;99.90;;;;;;5039580;28;20486;-71
2022/06/09 03:46:03;;;;;;;3.00;1.90;;;13.40;99.90;;;;;;5040462;28;20464;-71
2022/06/09 03:48:30;;;;;;;1.93;1.60;;;13.40;99.90;;;;;;5041327;28;20460;-70
2022/06/09 03:50:57;;;;;;;2.50;1.60;;;13.30;99.90;;;;;;5043268;28;20455;-71
2022/06/09 03:53:24;;;;;;;2.27;1.80;;;13.30;99.90;;;;;;5041640;28;20499;-70
2022/06/09 03:55:50;;;;;;;2.50;2.03;;;13.30;99.90;;;;;;5049585;28;20471;-71
2022/06/09 03:58:17;;;;;;;2.87;2.20;;;13.30;99.90;;;;;;5051827;28;20494;-71
2022/06/09 04:00:45;;;;;;;4.70;1.70;;;13.20;99.90;;;;;;5042288;28;20466;-72
2022/06/09 04:03:12;;;;;;;2.20;1.63;;;13.20;99.90;;;;;;5042711;28;20479;-72
2022/06/09 04:05:39;;;;;;;3.10;1.80;;;13.20;99.90;;;;;;5041045;28;20479;-71
2022/06/09 04:08:06;;;;;;;5.73;2.10;;;13.20;99.90;;;;;;5041131;28;20468;-73
2022/06/09 04:10:34;;;;;;;2.40;1.77;;;13.20;99.90;;;;;;5040248;28;20452;-71
2022/06/09 04:13:02;;;;;;;2.23;1.60;;;13.20;99.90;;;;;;5041904;28;21018;-69
2022/06/09 04:15:28;;;;;;;2.20;2.00;;;13.30;99.90;;;;;;5321253;22;20487;-71
2022/06/09 04:17:57;;;;;;;2.70;1.80;;;13.30;99.90;;;;;;5042982;28;20453;-71
2022/06/09 04:20:26;;;;;;;3.10;1.73;;;13.20;99.90;;;;;;5041275;28;20487;-71
2022/06/09 04:22:53;;;;;;;1.80;1.67;;;13.20;99.90;;;;;;5040507;28;20475;-71
2022/06/09 04:25:21;;;;;;;3.67;1.83;;;13.20;99.90;;;;;;5047170;28;20455;-72
2022/06/09 04:27:48;;;;;;;3.03;2.00;;;13.20;99.90;;;;;;5052231;28;20452;-72
2022/06/09 04:30:15;;;;;;;2.43;2.00;;;13.20;99.90;;;;;;5051200;28;20824;-73
2022/06/09 04:32:42;;;;;;;3.33;1.97;;;13.20;99.90;;;;;;5052715;28;20459;-73
2022/06/09 04:35:12;;;;;;;2.57;2.20;;;13.10;99.90;;;;;;5052656;28;20943;-73
2022/06/09 04:40:24;;;;;;;2.50;1.73;;;13.10;99.90;;;;;;5052444;28;21053;-73
2022/06/09 04:42:51;;;;;;;2.63;1.80;;;13.10;99.90;;;;;;5052430;28;20525;-72
2022/06/09 04:45:19;;;;;;;5.63;1.90;;;13.10;99.90;;;;;;5052496;28;20455;-73
2022/06/09 04:47:46;;;;;;;4.80;1.80;;;13.00;99.90;;;;;;5052501;28;20841;-73
2022/06/09 04:50:15;;;;;;;2.30;1.67;;;13.00;99.90;;;;;;5051905;28;20459;-73
2022/06/09 04:52:42;;;;;;;2.90;1.93;;;13.00;99.90;;;;;;5052248;28;20460;-73
2022/06/09 04:55:10;;;;;;;3.00;1.97;;;13.00;99.90;;;;;;5052599;28;20817;-73
2022/06/09 04:57:37;;;;;;;5.77;2.57;;;13.00;99.90;;;;;;5051475;28;20487;-71
2022/06/09 05:00:05;;;;;;;2.70;1.73;;;13.00;99.90;;;;;;5087541;22;20534;-92
2022/06/09 05:02:32;;;;;;;2.60;1.63;;;13.00;99.90;;;;;;5075947;28;20490;-93
2022/06/09 05:04:59;;;;;;;4.90;1.90;;;13.00;99.90;;;;;;5076382;28;20257;-94
2022/06/09 05:07:27;;;;;;;2.17;1.90;;;13.00;99.90;;;;;;5075716;28;20455;-93
2022/06/09 05:09:57;;;;;;;2.53;1.50;;;13.00;99.90;;;;;;5075772;28;20535;-92
2022/06/09 05:12:23;;;;;;;2.10;1.87;;;13.00;99.90;;;;;;5076224;28;21051;-93
2022/06/09 05:14:51;;;;;;;2.00;1.50;;;13.00;99.90;;;;;;5075481;28;20457;-93
2022/06/09 05:17:19;;;;;;;2.70;1.70;;;13.00;99.90;;;;;;5075681;28;20489;-93
2022/06/09 05:19:46;;;;;;;1.83;1.73;;;13.00;99.90;;;;;;5075078;28;20478;-93
2022/06/09 05:27:50;;;;;;;3.53;1.83;;;13.00;99.90;;;;;;5074995;28;20477;-93
2022/06/09 05:30:26;;;;;;;2.50;1.70;;;13.10;99.90;;;;;;5074926;28;20578;-93
2022/06/09 05:32:53;;;;;;;2.30;1.70;;;13.10;99.90;;;;;;5075323;28;20461;-93
2022/06/09 05:35:36;;;;;;;2.73;2.00;;;13.10;99.90;;;;;;5075411;28;20944;-92
2022/06/09 05:46:57;;;;;;;;;;;;;;;;;;;;;
2022/06/09 05:49:26;;;;;;;3.20;1.60;;;13.70;99.90;;;;;;5075265;28;20556;-93
2022/06/09 05:51:53;;;;;;;4.77;1.80;;;13.70;99.90;;;;;;5076368;28;20471;-92
2022/06/09 05:54:20;;;;;;;2.50;1.80;;;13.80;99.90;;;;;;5075951;28;20462;-93
2022/06/09 05:56:48;;;;;;;4.40;1.77;;;13.80;99.90;;;;;;5087224;28;20458;-94
2022/06/09 05:59:15;;;;;;;3.53;1.70;;;13.80;99.90;;;;;;5095429;28;20490;-93
2022/06/09 06:01:42;;;;;;;2.57;1.80;;;13.90;99.90;;;;;;5096568;28;20450;-93
2022/06/09 06:04:10;;;;;;;2.30;1.73;;;13.90;99.90;;;;;;5096842;28;20526;-94
2022/06/09 06:06:37;;;;;;;4.40;2.27;;;13.90;99.90;;;;;;5096097;28;20446;-92
2022/06/09 06:09:06;;;;;;;4.43;1.90;;;13.90;99.90;;;;;;5093346;28;20502;-93
2022/06/09 06:11:35;;;;;;;6.83;2.03;;;14.00;99.90;;;;;;5088262;28;21019;-93
2022/06/09 06:14:04;;;;;;;4.10;2.20;;;14.10;99.90;;;;;;5075973;28;20466;-93
2022/06/09 06:16:30;;;;;;;1.80;1.70;;;14.10;99.90;;;;;;5072278;28;21018;-93
2022/06/09 06:18:57;;;;;;;3.00;1.70;;;14.10;99.90;;;;;;5071868;28;20478;-93
2022/06/09 06:21:25;;;;;;;2.37;1.70;;;14.20;99.90;;;;;;5072849;28;20462;-93
2022/06/09 06:23:53;;;;;;;5.50;2.03;;;14.20;99.90;;;;;;5075072;28;20469;-92
2022/06/09 06:26:20;;;;;;;2.93;1.87;;;14.30;99.90;;;;;;5082459;28;20467;-92
2022/06/09 06:28:47;;;;;;;4.40;2.03;;;14.30;99.90;;;;;;5073973;28;20475;-93
2022/06/09 06:31:15;;;;;;;2.63;2.00;;;14.40;99.90;;;;;;5073960;28;20465;-93
2022/06/09 06:33:42;;;;;;;2.60;1.60;;;14.40;99.90;;;;;;5073533;28;20463;-92
2022/06/09 06:36:10;;;;;;;1.77;1.60;;;14.50;99.90;;;;;;5074369;28;20488;-93
2022/06/09 06:38:37;;;;;;;3.57;2.00;;;14.50;99.90;;;;;;5073842;28;20497;-93
2022/06/09 06:41:05;;;;;;;2.20;1.50;;;14.60;99.90;;;;;;5074286;28;20462;-93
2022/06/09 06:43:32;;;;;;;1.67;1.30;;;14.60;99.90;;;;;;5074280;28;20458;-93
2022/06/09 06:45:59;;;;;;;4.63;1.93;;;14.50;99.90;;;;;;5074579;28;20458;-92
2022/06/09 06:48:27;;;;;;;2.93;2.00;;;14.50;99.90;;;;;;5074112;28;20978;-92
2022/06/09 06:50:54;;;;;;;2.40;1.60;;;14.60;99.90;;;;;;5074093;28;20466;-92
2022/06/09 06:53:21;;;;;;;6.03;1.93;;;14.60;99.90;;;;;;5074694;28;20454;-93
2022/06/09 06:55:48;;;;;;;2.80;1.80;;;14.60;99.90;;;;;;5075297;28;20470;-92
2022/06/09 06:58:17;;;;;;;6.27;1.73;;;14.70;99.90;;;;;;5074898;28;20497;-92
2022/06/09 07:00:44;;;;;;;2.00;1.80;;;14.80;99.90;;;;;;5073796;28;20494;-93
2022/06/09 07:03:12;;;;;;;2.23;1.73;;;15.00;99.90;;;;;;5073722;28;20463;-93
2022/06/09 07:05:41;;;;;;;3.63;1.70;;;15.10;99.90;;;;;;5073722;28;20553;-92
2022/06/09 07:08:08;;;;;;;5.03;1.90;;;15.20;99.90;;;;;;5074305;28;20454;-93
2022/06/09 07:10:36;;;;;;;3.53;1.70;;;15.10;99.90;;;;;;5073504;28;20482;-92
2022/06/09 07:13:03;;;;;;;6.83;1.90;;;15.00;99.90;;;;;;5073606;28;20462;-93
2022/06/09 07:15:30;;;;;;;3.17;1.70;;;14.90;99.90;;;;;;5073879;28;20465;-92
2022/06/09 07:17:57;;;;;;;4.33;2.00;;;14.90;99.90;;;;;;5073398;28;20478;-92
2022/06/09 07:20:24;;;;;;;2.83;1.60;;;15.00;99.90;;;;;;5074992;28;20489;-92
2022/06/09 07:22:52;;;;;;;4.50;1.70;;;15.00;99.90;;;;;;5077030;28;20466;-92
2022/06/09 07:25:20;;;;;;;4.30;1.90;;;15.00;99.90;;;;;;5077403;28;20971;-92
2022/06/09 07:27:47;;;;;;;6.63;1.80;;;15.00;99.90;;;;;;5077972;28;20462;-93
2022/06/09 07:30:15;;;;;;;4.50;2.03;;;15.10;99.90;;;;;;5076663;28;20528;-92
2022/06/09 07:32:42;;;;;;;2.13;1.60;;;15.10;99.90;;;;;;5075071;28;20835;-93
2022/06/09 07:35:10;;;;;;;3.93;1.70;;;15.10;99.90;;;;;;5073134;28;20469;-92
2022/06/09 07:37:37;;;;;;;2.80;1.53;;;15.10;99.90;;;;;;5054953;28;20573;-93
2022/06/09 07:40:07;;;;;;;6.77;2.10;;;15.20;99.90;;;;;;5055374;28;20566;-93
2022/06/09 07:42:34;;;;;;;7.37;1.63;;;15.20;99.90;;;;;;5055561;28;20490;-93
2022/06/09 07:45:00;;;;;;;3.43;1.40;;;15.30;99.90;;;;;;5055103;28;20455;-92
2022/06/09 07:47:27;;;;;;;3.77;2.00;;;15.40;99.90;;;;;;5055641;28;20573;-93
2022/06/09 07:49:54;;;;;;;3.57;1.90;;;15.50;99.90;;;;;;5054128;28;20499;-93
2022/06/09 07:52:21;;;;;;;3.47;1.90;;;15.50;99.90;;;;;;5054979;28;20546;-92
2022/06/09 07:57:41;;;;;;;5.30;2.50;;;15.50;99.90;;;;;;5061397;28;20483;-92
2022/06/09 08:00:10;;;;;;;2.47;1.93;;;15.50;99.90;;;;;;5066380;28;20487;-92
2022/06/09 08:02:36;;;;;;;4.07;2.00;;;15.60;99.90;;;;;;5058356;28;20454;-93
2022/06/09 08:05:04;;;;;;;4.40;1.63;;;15.70;99.90;;;;;;5055294;28;20459;-92
2022/06/09 08:07:31;;;;;;;3.57;1.90;;;15.80;99.90;;;;;;5054831;28;20628;-93
2022/06/09 08:09:58;;;;;;;4.73;1.60;;;16.00;99.90;;;;;;5054515;28;21008;-92
2022/06/09 08:12:24;;;;;;;4.83;1.83;;;16.00;99.90;;;;;;5054075;28;20474;-91
2022/06/09 08:14:52;;;;;;;3.30;2.10;;;16.10;99.90;;;;;;5053750;28;20960;-91
2022/06/09 08:17:22;;;;;;;2.70;1.57;;;16.20;99.90;;;;;;5054873;28;20485;-91
2022/06/09 08:19:50;;;;;;;2.90;1.70;;;16.40;99.90;;;;;;5053574;28;20544;-90
2022/06/09 08:22:17;;;;;;;2.97;1.80;;;16.40;99.90;;;;;;5054824;28;20485;-90
2022/06/09 08:24:44;;;;;;;3.53;1.67;;;16.50;99.90;;;;;;5053475;28;20467;-90
2022/06/09 08:27:11;;;;;;;5.17;2.00;;;16.60;99.90;;;;;;5053545;28;20988;-92
2022/06/09 08:29:38;;;;;;;3.90;1.67;;;16.70;99.90;;;;;;5053534;28;20486;-91
2022/06/09 08:32:07;;;;;;;4.57;1.80;;;16.80;99.90;;;;;;5052247;28;20908;-92
2022/06/09 08:34:34;;;;;;;2.83;1.60;;;16.80;99.90;;;;;;5053440;28;20983;-93
2022/06/09 08:37:01;;;;;;;3.13;1.60;;;16.90;99.90;;;;;;5054065;28;20455;-93
2022/06/09 08:39:28;;;;;;;4.00;1.73;;;17.00;99.90;;;;;;5053748;28;20490;-94
2022/06/09 08:45:34;;;;;;;3.07;1.30;;;17.10;99.90;;;;;;5052226;28;20467;-94
2022/06/09 08:48:05;;;;;;;3.20;1.77;;;16.90;99.90;;;;;;5068300;28;20979;-92
2022/06/09 08:50:35;;;;;;;2.13;1.47;;;16.80;99.90;;;;;;5071052;28;20478;-91
2022/06/09 08:53:08;;;;;;;5.13;1.67;;;16.90;99.90;;;;;;5071879;28;20450;-89
2022/06/09 08:55:39;;;;;;;6.37;1.70;;;17.10;99.90;;;;;;5070770;28;20947;-89
2022/06/09 08:58:16;;;;;;;1.90;1.40;;;17.30;99.90;;;;;;5071441;28;21055;-89
2022/06/09 09:00:46;;;;;;;4.53;1.50;;;17.30;99.90;;;;;;5071441;28;20494;-88
2022/06/09 09:03:23;;;;;;;4.10;2.07;;;17.30;99.90;;;;;;5070414;28;20531;-88
2022/06/09 09:05:58;;;;;;;1.80;1.40;;;17.30;99.90;;;;;;5071484;28;20462;-91
2022/06/09 09:08:25;;;;;;;3.57;1.47;;;17.30;99.90;;;;;;5070820;28;20557;-91
2022/06/09 09:11:02;;;;;;;1.83;1.40;;;17.50;99.90;;;;;;5072230;28;20477;-92
2022/06/09 09:13:40;;;;;;;2.30;1.20;;;17.70;99.90;;;;;;5071571;28;20842;-94
2022/06/09 09:16:26;;;;;;;2.80;1.10;;;17.80;99.90;;;;;;5070142;28;20473;-92
2022/06/09 09:19:03;;;;;;;2.03;1.63;;;17.90;99.90;;;;;;5070322;28;20494;-92
2022/06/09 09:21:51;;;;;;;1.77;1.20;;;17.90;99.90;;;;;;5071234;28;20462;-92
2022/06/09 09:24:29;;;;;;;2.97;1.50;;;17.70;99.90;;;;;;5070132;28;20466;-92
2022/06/09 09:27:04;;;;;;;3.43;1.50;;;17.70;99.90;;;;;;5070261;28;20458;-92
2022/06/09 09:29:41;;;;;;;4.17;1.70;;;17.90;99.90;;;;;;5070983;28;20492;-91
2022/06/09 09:32:13;;;;;;;4.67;2.10;;;18.10;99.90;;;;;;5071441;28;20462;-92
2022/06/09 09:34:44;;;;;;;2.37;1.40;;;18.20;99.90;;;;;;5071372;28;20459;-93
2022/06/09 09:37:21;;;;;;;3.83;1.40;;;18.30;99.90;;;;;;5071547;28;20524;-93
2022/06/09 09:39:50;;;;;;;2.80;1.53;;;18.20;99.90;;;;;;5070511;28;20482;-92
2022/06/09 09:42:19;;;;;;;2.60;1.47;;;18.00;99.90;;;;;;5071788;28;20465;-92
2022/06/09 09:45:03;;;;;;;2.60;1.50;;;18.00;99.90;;;;;;5070886;28;20492;-92
2022/06/09 09:47:34;;;;;;;3.73;1.40;;;18.20;99.90;;;;;;5071226;28;20485;-93
2022/06/09 09:50:19;;;;;;;1.93;1.40;;;18.40;99.90;;;;;;5071060;28;20478;-92
2022/06/09 09:52:47;;;;;;;3.73;1.40;;;18.60;99.90;;;;;;5070715;28;20466;-92
2022/06/09 09:55:33;;;;;;;4.03;1.70;;;18.90;99.90;;;;;;5071018;28;20455;-91
2022/06/09 09:58:20;;;;;;;1.97;1.30;;;19.00;99.90;;;;;;5070434;28;20479;-91
2022/06/09 10:00:50;;;;;;;3.33;1.60;;;19.20;99.90;;;;;;5070695;28;20861;-91
2022/06/09 10:09:10;;;;;;;2.40;1.30;;;18.90;99.90;;;;;;5070551;28;20515;-89
2022/06/09 10:12:16;;;;;;;1.70;1.20;;;19.00;99.90;;;;;;5070283;28;20468;-91
2022/06/09 10:14:49;;;;;;;1.83;1.20;;;19.20;99.90;;;;;;5046580;28;20470;-89
2022/06/09 10:20:43;;;;;;;2.20;1.20;;;19.40;99.90;;;;;;5049242;28;20474;-90
2022/06/09 10:29:52;;;;;;;2.80;1.60;;;18.60;99.90;;;;;;5032433;23;20582;-70
2022/06/09 10:32:27;;;;;;;2.03;1.20;;;18.40;99.90;;;;;;5048660;28;20455;-72
2022/06/09 10:35:00;;;;;;;4.43;1.60;;;18.30;99.90;;;;;;5028079;28;20554;-69
2022/06/09 10:37:39;;;;;;;2.10;1.40;;;18.40;99.90;;;;;;5028240;28;20456;-69
2022/06/09 10:40:16;;;;;;;1.93;1.20;;;18.80;99.90;;;;;;5027566;28;20464;-69
2022/06/09 10:42:52;;;;;;;1.57;1.30;;;19.20;99.90;;;;;;5028240;28;20534;-69
2022/06/09 10:45:24;;;;;;;3.30;1.43;;;19.40;99.90;;;;;;5028265;28;20506;-68
2022/06/09 10:56:32;;;;;;;2.90;1.43;;;19.70;99.90;;;;;;5031663;28;20444;-72
2022/06/09 10:59:05;;;;;;;2.70;1.33;;;19.80;99.90;;;;;;5031630;28;20586;-73
2022/06/09 11:01:34;;;;;;;1.77;1.20;;;19.90;99.90;;;;;;5031804;28;20562;-72
2022/06/09 11:04:05;;;;;;;2.13;1.40;;;20.20;99.90;;;;;;5031695;28;20491;-72
2022/06/09 11:07:10;;;;;;;3.23;1.47;;;20.50;99.90;;;;;;5032203;28;20468;-72
2022/06/09 11:09:49;;;;;;;1.40;1.13;;;20.70;99.90;;;;;;5031907;28;20552;-71
2022/06/09 11:12:26;;;;;;;5.10;1.83;;;20.90;99.90;;;;;;5032521;28;20459;-71
2022/06/09 11:15:08;;;;;;;2.30;1.47;;;20.70;99.90;;;;;;5031737;28;20959;-71
2022/06/09 11:17:52;;;;;;;1.73;1.30;;;20.30;99.90;;;;;;5031429;28;20465;-71
2022/06/09 11:20:30;;;;;;;3.47;1.27;;;19.80;99.90;;;;;;5031658;28;20515;-68
2022/06/09 11:23:08;;;;;;;1.90;1.30;;;19.90;99.90;;;;;;5031160;28;20566;-69
2022/06/09 11:25:46;;;;;;;2.23;1.53;;;20.10;99.90;;;;;;5031798;28;20503;-70
2022/06/09 11:28:25;;;;;;;3.43;1.40;;;20.10;99.90;;;;;;5031346;28;20451;-68
2022/06/09 11:31:13;;;;;;;3.77;1.27;;;19.70;99.90;;;;;;5031311;28;20561;-68
2022/06/09 11:34:04;;;;;;;3.17;1.40;;;19.50;99.90;;;;;;5031886;28;20589;-68
2022/06/09 11:36:36;;;;;;;3.77;1.70;;;19.30;99.90;;;;;;5031790;28;20467;-68
2022/06/09 11:39:20;;;;;;;3.03;1.60;;;19.00;99.90;;;;;;5030955;28;20483;-69
2022/06/09 11:41:58;;;;;;;4.27;1.77;;;18.80;99.90;;;;;;5030944;28;20464;-69
2022/06/09 11:44:29;;;;;;;2.33;1.50;;;18.70;99.90;;;;;;5031160;28;20851;-70
2022/06/09 11:47:01;;;;;;;2.70;1.67;;;18.70;99.90;;;;;;5031452;28;20464;-70
2022/06/09 11:49:36;;;;;;;2.57;1.30;;;19.00;99.90;;;;;;5031125;28;20680;-69
2022/06/09 11:52:07;;;;;;;3.80;1.60;;;19.50;99.90;;;;;;5031227;28;21062;-70
2022/06/09 11:54:40;;;;;;;2.30;1.33;;;19.90;99.90;;;;;;5030895;28;20604;-69
2022/06/09 11:57:25;;;;;;;4.77;1.90;;;20.30;99.90;;;;;;5031529;28;20464;-70
2022/06/09 11:59:59;;;;;;;4.30;1.40;;;20.50;99.90;;;;;;5030528;28;20491;-70
2022/06/09 12:02:55;;;;;;;3.37;1.60;;;20.50;99.90;;;;;;5030750;28;20455;-69
2022/06/09 12:05:27;;;;;;;2.30;1.50;;;20.40;99.90;;;;;;5022711;28;20463;-69
2022/06/09 12:08:18;;;;;;;2.27;1.33;;;20.30;99.90;;;;;;5030478;28;20483;-69
2022/06/09 12:11:10;;;;;;;4.37;2.40;;;20.30;99.90;;;;;;5031095;28;20468;-69
2022/06/09 12:13:48;;;;;;;5.87;2.30;;;20.20;99.90;;;;;;5030779;28;20889;-71
2022/06/09 12:16:26;;;;;;;3.37;1.70;;;20.40;99.90;;;;;;5031679;28;20464;-69
2022/06/09 12:19:15;;;;;;;1.73;1.33;;;20.60;99.90;;;;;;5030019;28;20491;-69
2022/06/09 12:21:44;;;;;;;3.33;1.57;;;20.60;99.90;;;;;;5030379;28;20461;-69
2022/06/09 12:24:27;;;;;;;4.10;1.40;;;20.50;99.90;;;;;;5030742;28;20851;-68
2022/06/09 12:26:56;;;;;;;5.17;1.50;;;20.50;99.90;;;;;;5030858;28;20464;-69
2022/06/09 12:29:43;;;;;;;4.03;1.37;;;20.60;99.90;;;;;;5029820;28;20547;-71
2022/06/09 12:32:42;;;;;;;2.80;1.70;;;20.60;99.90;;;;;;5030622;28;20460;-69
2022/06/09 12:35:31;;;;;;;2.93;1.60;;;20.70;99.90;;;;;;5030707;28;20460;-69
2022/06/09 12:38:02;;;;;;;2.60;1.40;;;21.00;99.90;;;;;;5029945;28;20561;-71
2022/06/09 12:40:44;;;;;;;2.03;1.40;;;21.30;99.90;;;;;;5030839;28;20460;-69
2022/06/09 12:43:24;;;;;;;1.77;1.50;;;21.50;99.90;;;;;;5029558;28;20484;-69
2022/06/09 12:46:05;;;;;;;2.33;1.60;;;21.70;99.40;;;;;;5030159;28;20471;-69
2022/06/09 12:48:35;;;;;;;3.20;1.60;;;21.60;99.70;;;;;;5029756;28;20641;-68
2022/06/09 12:51:08;;;;;;;2.87;1.50;;;21.70;99.90;;;;;;5030163;28;20604;-69
2022/06/09 12:53:39;;;;;;;1.87;1.20;;;21.90;99.90;;;;;;5029879;28;20485;-69
2022/06/09 12:56:18;;;;;;;2.93;1.43;;;22.00;99.90;;;;;;5030009;28;20468;-69
2022/06/09 12:58:47;;;;;;;3.10;1.77;;;22.10;99.90;;;;;;5029153;28;20935;-69
2022/06/09 13:01:17;;;;;;;3.10;1.80;;;22.30;99.90;;;;;;5030430;28;20466;-69
2022/06/09 13:03:49;;;;;;;6.33;1.50;;;22.30;98.60;;;;;;5029947;28;20507;-69
2022/06/09 13:06:23;;;;;;;2.23;1.27;;;22.20;99.70;;;;;;5029877;28;20464;-69
2022/06/09 13:08:54;;;;;;;2.03;0.90;;;22.00;98.80;;;;;;5030001;28;20932;-70
2022/06/09 13:12:50;;;;;;;2.03;1.30;;;21.60;97.60;;;;;;5030585;28;20468;-70
2022/06/09 13:14:14;;;;;;;3.23;1.60;;;21.30;97.50;;;;;;5030095;28;20564;-68
2022/06/09 13:16:44;;;;;;;2.37;1.20;;;21.00;97.90;;;;;;5030389;28;20464;-69
2022/06/09 13:19:17;;;;;;;3.10;1.33;;;21.10;99.00;;;;;;5029106;28;21015;-70
2022/06/09 13:21:45;;;;;;;1.70;1.10;;;21.30;99.20;;;;;;5029732;28;20496;-69
2022/06/09 13:24:16;;;;;;;3.40;1.50;;;21.70;99.00;;;;;;5030787;28;20861;-69
2022/06/09 13:26:45;;;;;;;2.63;1.50;;;21.90;97.90;;;;;;5030484;28;20468;-69
2022/06/09 13:29:23;;;;;;;2.00;1.40;;;21.80;97.40;;;;;;5029190;28;20978;-69
2022/06/09 13:31:52;;;;;;;3.33;1.17;;;21.80;99.10;;;;;;5029470;28;20846;-69
2022/06/09 13:34:25;;;;;;;3.63;1.87;;;21.90;98.60;;;;;;5029796;28;20477;-69
2022/06/09 13:37:10;;;;;;;1.70;1.30;;;21.80;98.30;;;;;;5029695;28;20465;-69
2022/06/09 13:39:44;;;;;;;5.83;1.50;;;21.40;98.50;;;;;;5029245;28;20479;-69
2022/06/09 13:42:18;;;;;;;2.40;1.47;;;21.00;98.80;;;;;;5029785;28;20487;-69
2022/06/09 13:45:13;;;;;;;4.00;1.63;;;20.80;99.90;;;;;;5028839;28;20574;-70
2022/06/09 13:47:44;;;;;;;3.40;1.80;;;20.90;99.90;;;;;;5029651;28;20846;-70
2022/06/09 13:50:21;;;;;;;4.67;1.37;;;21.40;99.90;;;;;;5040766;28;20458;-69
2022/06/09 13:52:51;;;;;;;5.60;1.83;;;21.90;97.90;;;;;;5042339;28;20482;-69
2022/06/09 13:55:21;;;;;;;2.30;1.40;;;22.20;99.90;;;;;;5029681;28;20456;-70
2022/06/09 13:57:50;;;;;;;2.77;1.50;;;22.20;98.10;;;;;;5029450;28;20496;-70